Time;durP1;ratioP1;P1;durP2;ratioP2;P2;SDS_P1;SDS_P2;PMS_P1;PMS_P2;Temp;Humidity;BMP_temperature;BMP_pressure;BME280_temperature;BME280_humidity;BME280_pressure;Samples;Min_cycle;Max_cycle;Signal;HPM_P1;HPM_P2
2023/01/17 00:02:24;;;;;;;17.58;1.00;;;;;;;;;;4908831;29;20052;-78
2023/01/17 00:10:23;;;;;;;7.38;0.90;;;;;;;;;;4912038;29;20054;-79
2023/01/17 00:12:51;;;;;;;5.82;0.88;;;;;;;;;;4913654;29;20351;-81
2023/01/17 00:15:18;;;;;;;12.55;1.15;;;;;;;;;;4914092;29;20052;-82
2023/01/17 00:17:45;;;;;;;7.70;0.82;;;;;;;;;;4915699;29;20509;-77
2023/01/17 00:26:04;;;;;;;6.95;0.75;;;;;;;;;;4942600;28;20051;-78
2023/01/17 01:35:54;;;;;;;9.05;0.65;;;;;;;;;;4945955;28;20051;-78
2023/01/17 01:38:22;;;;;;;12.70;0.90;;;;;;;;;;4936178;28;20058;-75
2023/01/17 01:40:54;;;;;;;23.90;1.17;;;;;;;;;;4942686;28;20101;-77
2023/01/17 01:43:40;;;;;;;8.68;0.60;;;;;;;;;;4942030;28;20051;-70
2023/01/17 01:46:10;;;;;;;11.15;0.90;;;;;;;;;;4941785;28;20593;-72
2023/01/17 01:48:44;;;;;;;10.75;0.95;;;;;;;;;;4938143;28;20051;-71
2023/01/17 01:51:14;;;;;;;23.20;2.03;;;;;;;;;;4940312;28;20047;-74
2023/01/17 01:53:44;;;;;;;24.00;1.45;;;;;;;;;;4943991;28;20051;-73
2023/01/17 01:56:12;;;;;;;15.18;1.08;;;;;;;;;;4943953;28;20055;-73
2023/01/17 01:58:42;;;;;;;5.75;0.70;;;;;;;;;;4946247;28;20051;-77
2023/01/17 02:01:08;;;;;;;7.35;0.57;;;;;;;;;;4941009;28;20601;-75
2023/01/17 02:03:35;;;;;;;7.25;0.85;;;;;;;;;;4935405;28;20489;-70
2023/01/17 02:06:30;;;;;;;10.80;0.85;;;;;;;;;;4938933;28;20362;-69
2023/01/17 02:09:03;;;;;;;4.60;0.90;;;;;;;;;;4926728;28;20055;-72
2023/01/17 02:11:30;;;;;;;9.80;0.70;;;;;;;;;;4937260;28;20059;-76
2023/01/17 02:13:56;;;;;;;9.88;0.75;;;;;;;;;;4944820;28;20535;-71
2023/01/17 02:16:47;;;;;;;4.60;0.70;;;;;;;;;;4940529;28;20055;-71
2023/01/17 02:19:24;;;;;;;5.07;0.73;;;;;;;;;;4941071;28;20134;-71
2023/01/17 02:22:00;;;;;;;6.45;0.57;;;;;;;;;;4934936;28;20051;-70
2023/01/17 02:24:49;;;;;;;6.78;0.60;;;;;;;;;;4942929;28;20066;-72
2023/01/17 02:27:24;;;;;;;5.18;0.40;;;;;;;;;;4935646;28;20051;-74
2023/01/17 02:30:41;;;;;;;2.70;0.52;;;;;;;;;;4942864;28;20173;-72
2023/01/17 02:33:10;;;;;;;3.85;0.60;;;;;;;;;;4926722;28;20069;-73
2023/01/17 02:35:47;;;;;;;6.20;0.50;;;;;;;;;;4939593;28;20137;-74
2023/01/17 02:38:32;;;;;;;4.15;0.50;;;;;;;;;;4935725;28;20150;-70
2023/01/17 02:41:08;;;;;;;1.90;0.47;;;;;;;;;;4938953;28;20094;-78
2023/01/17 02:43:36;;;;;;;8.20;0.82;;;;;;;;;;4940023;28;20317;-71
2023/01/17 02:46:02;;;;;;;4.80;0.45;;;;;;;;;;4942824;28;20165;-71
2023/01/17 02:48:32;;;;;;;5.68;1.13;;;;;;;;;;4941508;28;20051;-73
2023/01/17 02:51:37;;;;;;;6.40;0.60;;;;;;;;;;4936875;28;20205;-75
2023/01/17 02:54:29;;;;;;;1.55;0.43;;;;;;;;;;4937051;28;20051;-72
2023/01/17 02:57:25;;;;;;;8.07;0.50;;;;;;;;;;4943807;28;20087;-73
2023/01/17 03:00:01;;;;;;;0.82;0.38;;;;;;;;;;4942571;28;20485;-75
2023/01/17 03:02:43;;;;;;;8.45;1.00;;;;;;;;;;4937276;28;20099;-70
2023/01/17 03:05:17;;;;;;;4.32;0.63;;;;;;;;;;4946039;28;20047;-72
2023/01/17 03:07:43;;;;;;;8.43;0.60;;;;;;;;;;4936433;28;20047;-71
2023/01/17 03:10:11;;;;;;;0.90;0.38;;;;;;;;;;4937875;28;20054;-73
2023/01/17 03:12:39;;;;;;;1.67;0.63;;;;;;;;;;4939073;28;20062;-72
2023/01/17 03:15:13;;;;;;;3.50;0.45;;;;;;;;;;4940127;28;20146;-75
2023/01/17 03:17:49;;;;;;;0.52;0.30;;;;;;;;;;4934463;28;20051;-70
2023/01/17 03:20:16;;;;;;;2.15;0.40;;;;;;;;;;4932100;28;20086;-72
2023/01/17 03:22:41;;;;;;;5.35;0.50;;;;;;;;;;4933557;28;20858;-69
2023/01/17 03:25:08;;;;;;;3.38;0.55;;;;;;;;;;4940593;28;20114;-74
2023/01/17 03:27:33;;;;;;;4.53;0.52;;;;;;;;;;4934367;28;20099;-70
2023/01/17 03:30:00;;;;;;;5.75;0.43;;;;;;;;;;4943603;28;20373;-68
2023/01/17 03:32:26;;;;;;;1.58;0.40;;;;;;;;;;4940363;28;20047;-74
2023/01/17 03:34:52;;;;;;;2.25;0.30;;;;;;;;;;4941063;29;20486;-73
2023/01/17 03:37:18;;;;;;;5.47;0.60;;;;;;;;;;4941373;28;20047;-73
2023/01/17 03:39:44;;;;;;;2.08;0.35;;;;;;;;;;4937020;28;20055;-73
2023/01/17 03:42:10;;;;;;;0.50;0.30;;;;;;;;;;4936360;28;20089;-76
2023/01/17 03:44:36;;;;;;;3.60;0.47;;;;;;;;;;4932239;28;20052;-77
2023/01/17 03:47:03;;;;;;;2.22;0.20;;;;;;;;;;4941726;28;20055;-75
2023/01/17 03:49:29;;;;;;;0.98;0.22;;;;;;;;;;4939091;28;21407;-71
2023/01/17 03:51:54;;;;;;;3.92;0.63;;;;;;;;;;4938720;28;20070;-70
2023/01/17 03:54:20;;;;;;;1.90;0.50;;;;;;;;;;4941883;28;20052;-71
2023/01/17 03:56:46;;;;;;;1.48;0.30;;;;;;;;;;4941715;28;20066;-72
2023/01/17 03:59:12;;;;;;;15.60;1.17;;;;;;;;;;4941655;28;20051;-69
2023/01/17 04:01:38;;;;;;;2.72;0.75;;;;;;;;;;4935634;28;20051;-74
2023/01/17 04:04:04;;;;;;;3.50;0.57;;;;;;;;;;4943647;28;20051;-73
2023/01/17 04:06:30;;;;;;;3.55;0.50;;;;;;;;;;4940065;28;20543;-76
2023/01/17 04:08:56;;;;;;;11.75;0.52;;;;;;;;;;4944910;28;20090;-70
2023/01/17 04:11:22;;;;;;;1.08;0.20;;;;;;;;;;4939726;28;20051;-73
2023/01/17 04:13:48;;;;;;;9.13;0.60;;;;;;;;;;4942799;28;20063;-73
2023/01/17 04:16:16;;;;;;;3.83;0.63;;;;;;;;;;4942347;28;20460;-74
2023/01/17 04:18:43;;;;;;;3.60;0.50;;;;;;;;;;4937400;28;20051;-69
2023/01/17 04:21:09;;;;;;;9.57;0.68;;;;;;;;;;4931075;28;20517;-72
2023/01/17 04:23:35;;;;;;;1.77;0.40;;;;;;;;;;4936753;28;20058;-71
2023/01/17 04:26:02;;;;;;;0.47;0.30;;;;;;;;;;4942296;28;20047;-72
2023/01/17 04:28:28;;;;;;;4.82;0.40;;;;;;;;;;4942466;28;20051;-71
2023/01/17 04:30:58;;;;;;;2.88;0.50;;;;;;;;;;4942271;28;20047;-72
2023/01/17 04:33:24;;;;;;;2.42;0.40;;;;;;;;;;4940500;28;20071;-71
2023/01/17 04:35:54;;;;;;;10.57;0.52;;;;;;;;;;4940227;28;20317;-74
2023/01/17 04:38:21;;;;;;;4.68;0.43;;;;;;;;;;4942938;28;20048;-70
2023/01/17 04:40:47;;;;;;;5.72;0.40;;;;;;;;;;4938832;28;20043;-74
2023/01/17 04:43:14;;;;;;;2.45;0.38;;;;;;;;;;4944043;28;20070;-72
2023/01/17 04:45:39;;;;;;;0.98;0.30;;;;;;;;;;4941843;28;20054;-73
2023/01/17 04:48:06;;;;;;;1.27;0.30;;;;;;;;;;4946446;28;20334;-77
2023/01/17 04:50:33;;;;;;;1.80;0.40;;;;;;;;;;4942421;28;20539;-71
2023/01/17 04:52:59;;;;;;;3.60;0.70;;;;;;;;;;4939935;28;20472;-70
2023/01/17 04:55:26;;;;;;;6.63;0.52;;;;;;;;;;4958725;28;20054;-69
2023/01/17 04:57:52;;;;;;;1.05;0.40;;;;;;;;;;4939698;28;20121;-72
2023/01/17 05:00:18;;;;;;;0.77;0.40;;;;;;;;;;4935987;28;20051;-71
2023/01/17 05:02:44;;;;;;;1.92;0.30;;;;;;;;;;4935684;28;20047;-75
2023/01/17 05:05:10;;;;;;;1.02;0.40;;;;;;;;;;4942436;28;20119;-70
2023/01/17 05:07:36;;;;;;;7.88;0.52;;;;;;;;;;4941189;28;20043;-69
2023/01/17 05:10:03;;;;;;;0.95;0.30;;;;;;;;;;4942365;28;20179;-71
2023/01/17 05:12:29;;;;;;;1.75;0.60;;;;;;;;;;4940662;28;20119;-72
2023/01/17 05:14:55;;;;;;;1.48;0.40;;;;;;;;;;4941344;28;20043;-71
2023/01/17 05:17:21;;;;;;;1.35;0.30;;;;;;;;;;4944832;28;20058;-70
2023/01/17 05:19:47;;;;;;;1.15;0.35;;;;;;;;;;4940581;28;20055;-72
2023/01/17 05:22:14;;;;;;;0.65;0.20;;;;;;;;;;4942460;28;20412;-70
2023/01/17 05:24:45;;;;;;;1.65;0.30;;;;;;;;;;4938168;28;21290;-74
2023/01/17 05:27:12;;;;;;;0.98;0.30;;;;;;;;;;4942095;28;20062;-74
2023/01/17 05:29:38;;;;;;;1.10;0.20;;;;;;;;;;4941448;28;20055;-68
2023/01/17 05:32:05;;;;;;;0.65;0.28;;;;;;;;;;4940351;28;20047;-75
2023/01/17 05:34:31;;;;;;;2.58;0.40;;;;;;;;;;4943301;28;20150;-73
2023/01/17 05:36:57;;;;;;;0.25;0.20;;;;;;;;;;4938113;28;20191;-74
2023/01/17 05:39:23;;;;;;;0.77;0.20;;;;;;;;;;4935540;28;20460;-70
2023/01/17 05:41:49;;;;;;;0.95;0.40;;;;;;;;;;4939558;28;20043;-73
2023/01/17 05:44:15;;;;;;;0.38;0.30;;;;;;;;;;4940265;28;20128;-72
2023/01/17 05:46:41;;;;;;;2.97;0.30;;;;;;;;;;4944850;28;20109;-69
2023/01/17 05:49:07;;;;;;;0.35;0.22;;;;;;;;;;4939179;28;20059;-69
2023/01/17 05:51:36;;;;;;;1.67;0.40;;;;;;;;;;4941661;28;20044;-69
2023/01/17 05:54:03;;;;;;;1.50;0.40;;;;;;;;;;4936230;28;20583;-74
2023/01/17 05:56:29;;;;;;;0.98;0.40;;;;;;;;;;4937555;28;20122;-71
2023/01/17 05:58:55;;;;;;;2.70;0.30;;;;;;;;;;4943514;28;20580;-74
2023/01/17 06:01:21;;;;;;;1.00;0.30;;;;;;;;;;4938670;28;20050;-71
2023/01/17 06:03:47;;;;;;;0.90;0.30;;;;;;;;;;4926692;28;20316;-73
2023/01/17 06:06:13;;;;;;;0.93;0.30;;;;;;;;;;4939563;28;20047;-75
2023/01/17 06:08:39;;;;;;;0.88;0.40;;;;;;;;;;4942905;28;20110;-77
2023/01/17 06:11:05;;;;;;;1.80;0.30;;;;;;;;;;4942339;28;20047;-72
2023/01/17 06:13:31;;;;;;;0.32;0.20;;;;;;;;;;4937814;28;20054;-75
2023/01/17 06:16:01;;;;;;;2.42;0.35;;;;;;;;;;4943385;28;20800;-73
2023/01/17 06:18:27;;;;;;;1.48;0.20;;;;;;;;;;4938934;28;20586;-73
2023/01/17 06:20:54;;;;;;;2.30;0.45;;;;;;;;;;4936892;28;20664;-72
2023/01/17 06:23:21;;;;;;;1.73;0.40;;;;;;;;;;4934991;28;20078;-75
2023/01/17 06:25:47;;;;;;;0.65;0.30;;;;;;;;;;4943706;28;20141;-69
2023/01/17 06:28:15;;;;;;;2.03;1.05;;;;;;;;;;4939593;28;20308;-71
2023/01/17 06:30:42;;;;;;;1.80;1.05;;;;;;;;;;4935933;28;20083;-72
2023/01/17 06:33:09;;;;;;;0.40;0.40;;;;;;;;;;4937860;28;20064;-72
2023/01/17 06:35:37;;;;;;;0.40;0.40;;;;;;;;;;4942484;28;20051;-76
2023/01/17 06:38:02;;;;;;;0.85;0.45;;;;;;;;;;4931772;28;20758;-75
2023/01/17 06:40:29;;;;;;;0.75;0.40;;;;;;;;;;4927730;28;20059;-69
2023/01/17 06:43:00;;;;;;;3.72;0.60;;;;;;;;;;4937220;28;20046;-72
2023/01/17 06:45:28;;;;;;;0.68;0.50;;;;;;;;;;4942877;28;20043;-74
2023/01/17 06:47:54;;;;;;;1.33;0.47;;;;;;;;;;4941186;28;20093;-72
2023/01/17 06:50:20;;;;;;;1.77;0.82;;;;;;;;;;4938360;28;20051;-77
2023/01/17 06:53:01;;;;;;;2.75;0.57;;;;;;;;;;4943108;28;20061;-75
2023/01/17 06:55:29;;;;;;;2.08;0.70;;;;;;;;;;4942724;28;20078;-73
2023/01/17 06:58:01;;;;;;;3.17;0.50;;;;;;;;;;4939449;28;20069;-70
2023/01/17 07:00:28;;;;;;;2.15;0.80;;;;;;;;;;4930103;28;20063;-75
2023/01/17 07:02:54;;;;;;;0.90;0.68;;;;;;;;;;4936858;28;20059;-71
2023/01/17 07:05:20;;;;;;;2.30;0.57;;;;;;;;;;4942858;28;20059;-74
2023/01/17 07:07:46;;;;;;;3.90;0.52;;;;;;;;;;4937304;28;20047;-73
2023/01/17 07:10:13;;;;;;;8.50;0.57;;;;;;;;;;4938305;28;20062;-69
2023/01/17 07:12:40;;;;;;;1.17;0.40;;;;;;;;;;4944879;28;20043;-77
2023/01/17 07:15:07;;;;;;;4.28;0.77;;;;;;;;;;4938784;28;20138;-76
2023/01/17 07:17:34;;;;;;;0.47;0.32;;;;;;;;;;4940297;28;20066;-70
2023/01/17 07:20:00;;;;;;;5.90;0.50;;;;;;;;;;4929982;28;20043;-70
2023/01/17 07:22:26;;;;;;;3.92;0.50;;;;;;;;;;4938097;28;20051;-70
2023/01/17 07:24:57;;;;;;;0.82;0.20;;;;;;;;;;4938685;29;20055;-72
2023/01/17 07:27:24;;;;;;;0.95;0.50;;;;;;;;;;4929707;28;20053;-72
2023/01/17 07:29:50;;;;;;;0.80;0.40;;;;;;;;;;4941297;28;20054;-72
2023/01/17 07:32:17;;;;;;;4.90;0.30;;;;;;;;;;4934807;28;20043;-71
2023/01/17 07:34:43;;;;;;;2.38;0.38;;;;;;;;;;4941245;29;20078;-70
2023/01/17 07:37:09;;;;;;;2.15;0.47;;;;;;;;;;4942126;28;20079;-71
2023/01/17 07:39:36;;;;;;;0.90;0.43;;;;;;;;;;4943124;28;20051;-68
2023/01/17 07:42:02;;;;;;;2.22;0.40;;;;;;;;;;4938979;28;20179;-69
2023/01/17 07:44:28;;;;;;;4.68;0.63;;;;;;;;;;4934776;28;20047;-75
2023/01/17 07:46:54;;;;;;;3.65;0.40;;;;;;;;;;4938664;29;20051;-74
2023/01/17 07:49:20;;;;;;;3.88;0.50;;;;;;;;;;4934996;28;20796;-75
2023/01/17 07:51:46;;;;;;;1.25;0.30;;;;;;;;;;4941368;28;20051;-71
2023/01/17 07:54:12;;;;;;;2.65;0.50;;;;;;;;;;4942448;28;20133;-71
2023/01/17 07:56:38;;;;;;;5.18;0.70;;;;;;;;;;4945729;28;20416;-72
2023/01/17 07:59:05;;;;;;;5.72;0.85;;;;;;;;;;4941735;28;20137;-71
2023/01/17 08:01:31;;;;;;;3.50;0.52;;;;;;;;;;4936063;28;20051;-72
2023/01/17 08:03:57;;;;;;;4.45;0.60;;;;;;;;;;4941743;28;20058;-74
2023/01/17 08:06:24;;;;;;;2.50;0.60;;;;;;;;;;4943277;28;20043;-74
2023/01/17 08:08:57;;;;;;;1.50;0.50;;;;;;;;;;4932516;28;20059;-75
2023/01/17 08:11:23;;;;;;;2.28;0.40;;;;;;;;;;4931784;28;20054;-73
2023/01/17 08:13:56;;;;;;;1.95;0.50;;;;;;;;;;4939883;28;20043;-75
2023/01/17 08:16:23;;;;;;;4.30;0.50;;;;;;;;;;4933177;28;20082;-74
2023/01/17 08:18:50;;;;;;;1.90;0.38;;;;;;;;;;4942901;28;20051;-75
2023/01/17 08:21:17;;;;;;;4.50;0.90;;;;;;;;;;4944169;28;20416;-74
2023/01/17 08:23:47;;;;;;;4.68;0.63;;;;;;;;;;4941082;28;20048;-74
2023/01/17 08:26:20;;;;;;;4.10;0.50;;;;;;;;;;4935690;28;20055;-73
2023/01/17 08:28:55;;;;;;;1.45;0.55;;;;;;;;;;4932873;28;20166;-74
2023/01/17 08:31:21;;;;;;;1.95;0.60;;;;;;;;;;4933602;28;20231;-70
2023/01/17 08:33:48;;;;;;;2.80;0.57;;;;;;;;;;4934662;28;20051;-73
2023/01/17 08:36:14;;;;;;;0.70;0.50;;;;;;;;;;4937628;28;20059;-74
2023/01/17 08:38:40;;;;;;;2.58;0.25;;;;;;;;;;4943173;28;21063;-72
2023/01/17 08:41:06;;;;;;;2.80;0.50;;;;;;;;;;4939021;28;20055;-72
2023/01/17 08:43:32;;;;;;;2.03;0.40;;;;;;;;;;4935066;28;20962;-71
2023/01/17 08:45:57;;;;;;;1.00;0.38;;;;;;;;;;4930586;28;20431;-72
2023/01/17 08:48:23;;;;;;;1.88;0.50;;;;;;;;;;4934690;28;20075;-73
2023/01/17 08:50:49;;;;;;;1.38;0.70;;;;;;;;;;4941511;28;20055;-71
2023/01/17 08:53:17;;;;;;;2.90;0.60;;;;;;;;;;4939651;28;20450;-71
2023/01/17 08:55:43;;;;;;;2.08;0.40;;;;;;;;;;4941965;28;20051;-72
2023/01/17 08:58:09;;;;;;;1.02;0.32;;;;;;;;;;4942557;28;20054;-73
2023/01/17 09:00:34;;;;;;;2.08;0.30;;;;;;;;;;4939675;28;20051;-71
2023/01/17 09:03:00;;;;;;;3.42;0.40;;;;;;;;;;4939588;28;20043;-73
2023/01/17 09:05:27;;;;;;;1.15;0.70;;;;;;;;;;4943135;28;20403;-73
2023/01/17 09:07:55;;;;;;;2.53;0.60;;;;;;;;;;4943822;28;20134;-74
2023/01/17 09:10:22;;;;;;;2.13;0.60;;;;;;;;;;4933405;28;20059;-74
2023/01/17 09:12:48;;;;;;;6.82;0.60;;;;;;;;;;4944439;28;20063;-72
2023/01/17 09:15:19;;;;;;;7.40;0.70;;;;;;;;;;4944387;28;20094;-73
2023/01/17 09:17:46;;;;;;;7.85;0.43;;;;;;;;;;4945760;28;20066;-71
2023/01/17 09:20:12;;;;;;;12.45;0.70;;;;;;;;;;4940044;28;20130;-72
2023/01/17 09:22:38;;;;;;;3.10;0.47;;;;;;;;;;4942678;28;20158;-74
2023/01/17 09:25:06;;;;;;;18.40;1.38;;;;;;;;;;4946710;28;20600;-72
2023/01/17 09:27:32;;;;;;;4.65;0.63;;;;;;;;;;4946246;28;20753;-74
2023/01/17 09:29:58;;;;;;;2.38;0.55;;;;;;;;;;4943085;28;20154;-73
2023/01/17 09:32:24;;;;;;;3.72;0.70;;;;;;;;;;4936702;28;20059;-72
2023/01/17 09:34:50;;;;;;;5.35;0.70;;;;;;;;;;4935569;28;20572;-71
2023/01/17 09:37:16;;;;;;;4.07;0.43;;;;;;;;;;4938511;28;20303;-72
2023/01/17 09:39:42;;;;;;;15.13;1.48;;;;;;;;;;4936121;28;20055;-73
2023/01/17 09:42:24;;;;;;;9.00;0.90;;;;;;;;;;4940041;28;20043;-71
2023/01/17 09:44:51;;;;;;;4.18;0.55;;;;;;;;;;4938080;28;20062;-71
2023/01/17 09:47:42;;;;;;;4.32;0.60;;;;;;;;;;4943985;28;20497;-74
2023/01/17 09:50:14;;;;;;;6.88;0.82;;;;;;;;;;4941649;28;20078;-73
2023/01/17 09:52:40;;;;;;;6.22;0.60;;;;;;;;;;4946448;28;20110;-73
2023/01/17 09:55:11;;;;;;;5.82;0.57;;;;;;;;;;4943840;28;20054;-73
2023/01/17 09:57:47;;;;;;;2.35;0.30;;;;;;;;;;4940074;28;20122;-74
2023/01/17 10:00:45;;;;;;;6.47;0.60;;;;;;;;;;4945794;28;20504;-76
2023/01/17 10:03:32;;;;;;;4.68;0.68;;;;;;;;;;4936747;28;20055;-74
2023/01/17 10:06:15;;;;;;;4.97;0.43;;;;;;;;;;4935455;28;20048;-72
2023/01/17 10:09:06;;;;;;;5.65;0.60;;;;;;;;;;4943289;28;20489;-74
2023/01/17 10:11:43;;;;;;;18.33;1.05;;;;;;;;;;4943703;28;20051;-72
2023/01/17 10:14:40;;;;;;;5.70;0.70;;;;;;;;;;4935867;28;20055;-72
2023/01/17 10:17:22;;;;;;;1.02;0.40;;;;;;;;;;4943909;28;20066;-73
2023/01/17 10:20:06;;;;;;;3.60;0.40;;;;;;;;;;4941323;28;20063;-73
2023/01/17 10:23:00;;;;;;;3.30;0.47;;;;;;;;;;4941832;28;20157;-75
2023/01/17 10:25:46;;;;;;;1.85;0.40;;;;;;;;;;4938883;28;20130;-76
2023/01/17 10:28:21;;;;;;;1.55;0.60;;;;;;;;;;4933690;28;20051;-74
2023/01/17 10:30:50;;;;;;;1.33;0.60;;;;;;;;;;4936256;28;20076;-71
2023/01/17 10:33:23;;;;;;;3.75;0.73;;;;;;;;;;4937082;28;20142;-72
2023/01/17 10:36:04;;;;;;;2.43;0.70;;;;;;;;;;4935402;28;20059;-76
2023/01/17 10:38:33;;;;;;;1.67;0.85;;;;;;;;;;4942053;28;20312;-74
2023/01/17 10:41:04;;;;;;;2.88;1.00;;;;;;;;;;4942145;28;20051;-72
2023/01/17 10:44:03;;;;;;;2.67;0.93;;;;;;;;;;4943597;28;20058;-71
2023/01/17 10:46:41;;;;;;;2.63;0.70;;;;;;;;;;4942407;28;20039;-74
2023/01/17 10:49:20;;;;;;;0.52;0.28;;;;;;;;;;4942227;28;20039;-73
2023/01/17 10:52:01;;;;;;;2.85;0.50;;;;;;;;;;4940209;28;20061;-75
2023/01/17 10:54:44;;;;;;;1.60;0.70;;;;;;;;;;4940890;28;20134;-73
2023/01/17 10:57:21;;;;;;;3.33;0.80;;;;;;;;;;4939627;28;20059;-74
2023/01/17 10:59:47;;;;;;;2.67;0.60;;;;;;;;;;4940329;28;20628;-74
2023/01/17 11:02:49;;;;;;;2.55;0.75;;;;;;;;;;4942522;28;20111;-74
2023/01/17 11:05:33;;;;;;;0.98;0.60;;;;;;;;;;4904052;29;20473;-75
2023/01/17 11:08:03;;;;;;;10.32;0.95;;;;;;;;;;4902557;29;20047;-73
2023/01/17 11:10:42;;;;;;;6.47;1.17;;;;;;;;;;4902038;29;20126;-77
2023/01/17 11:13:31;;;;;;;5.45;0.90;;;;;;;;;;4900606;29;20056;-72
2023/01/17 11:16:05;;;;;;;4.00;0.50;;;;;;;;;;4902442;29;20119;-75
2023/01/17 11:18:34;;;;;;;8.20;0.60;;;;;;;;;;4902681;29;20599;-72
2023/01/17 11:21:22;;;;;;;6.65;0.60;;;;;;;;;;4899876;29;20056;-73
2023/01/17 11:23:55;;;;;;;5.13;1.00;;;;;;;;;;4894782;29;20124;-76
2023/01/17 11:26:27;;;;;;;6.95;0.90;;;;;;;;;;4899134;29;20074;-76
2023/01/17 11:29:24;;;;;;;6.82;0.80;;;;;;;;;;4902665;29;20040;-73
2023/01/17 11:31:50;;;;;;;5.03;0.68;;;;;;;;;;4899082;29;20076;-75
2023/01/17 11:34:21;;;;;;;5.07;0.47;;;;;;;;;;4899030;29;20088;-73
2023/01/17 11:36:48;;;;;;;8.65;0.85;;;;;;;;;;4899768;29;20140;-76
2023/01/17 11:39:17;;;;;;;8.38;0.90;;;;;;;;;;4921406;28;20442;-73
2023/01/17 11:41:46;;;;;;;4.53;0.57;;;;;;;;;;4945162;28;20039;-74
2023/01/17 11:44:21;;;;;;;2.13;0.50;;;;;;;;;;4950532;28;20101;-73
2023/01/17 11:46:47;;;;;;;5.20;0.57;;;;;;;;;;4935649;28;20126;-81
2023/01/17 11:49:24;;;;;;;2.72;0.50;;;;;;;;;;4942455;28;20161;-75
2023/01/17 11:51:54;;;;;;;3.42;0.70;;;;;;;;;;4946450;28;20047;-78
2023/01/17 11:54:37;;;;;;;9.80;1.60;;;;;;;;;;4946781;28;20131;-75
2023/01/17 11:57:05;;;;;;;2.80;0.93;;;;;;;;;;4941594;28;20062;-75
2023/01/17 11:59:42;;;;;;;4.97;0.50;;;;;;;;;;4943452;28;20059;-78
2023/01/17 12:02:40;;;;;;;2.05;0.68;;;;;;;;;;4942436;28;20051;-75
2023/01/17 12:05:31;;;;;;;1.98;0.70;;;;;;;;;;4938474;28;20218;-75
2023/01/17 12:08:18;;;;;;;9.43;1.13;;;;;;;;;;4943580;28;20078;-77
2023/01/17 12:11:01;;;;;;;6.30;0.80;;;;;;;;;;4942444;28;20439;-75
2023/01/17 12:14:01;;;;;;;4.95;1.00;;;;;;;;;;4936377;28;20050;-73
2023/01/17 12:16:30;;;;;;;3.78;0.95;;;;;;;;;;4946433;28;20050;-75
2023/01/17 12:19:42;;;;;;;5.15;1.30;;;;;;;;;;4939873;28;20061;-75
2023/01/17 12:22:20;;;;;;;6.95;0.80;;;;;;;;;;4937124;28;20051;-76
2023/01/17 12:25:19;;;;;;;7.78;1.20;;;;;;;;;;4940629;28;20047;-75
2023/01/17 12:28:10;;;;;;;4.95;1.02;;;;;;;;;;4940510;28;20483;-75
2023/01/17 12:31:02;;;;;;;17.38;2.08;;;;;;;;;;4937341;28;20047;-76
2023/01/17 12:34:00;;;;;;;22.25;2.33;;;;;;;;;;4939049;28;21675;-76
2023/01/17 12:36:26;;;;;;;11.57;1.25;;;;;;;;;;4939516;28;20137;-78
2023/01/17 12:38:52;;;;;;;10.13;1.10;;;;;;;;;;4931162;28;20696;-75
2023/01/17 12:41:25;;;;;;;21.80;2.05;;;;;;;;;;4940182;28;20054;-72
2023/01/17 12:43:59;;;;;;;14.13;1.27;;;;;;;;;;4944944;28;20043;-79
2023/01/17 12:46:41;;;;;;;17.10;1.60;;;;;;;;;;4940957;28;20051;-74
2023/01/17 12:49:46;;;;;;;17.50;1.20;;;;;;;;;;4944469;28;20135;-75
2023/01/17 12:52:46;;;;;;;12.02;1.00;;;;;;;;;;4920455;29;20115;-77
2023/01/17 12:55:43;;;;;;;8.13;1.33;;;;;;;;;;4943589;28;20051;-72
2023/01/17 12:58:18;;;;;;;13.13;1.05;;;;;;;;;;4938043;28;20055;-77
2023/01/17 13:00:49;;;;;;;9.10;1.08;;;;;;;;;;4941991;28;20163;-75
2023/01/17 13:03:26;;;;;;;10.43;1.17;;;;;;;;;;4941256;28;20051;-76
2023/01/17 13:05:54;;;;;;;4.80;1.05;;;;;;;;;;4945240;28;20531;-73
2023/01/17 13:08:42;;;;;;;5.78;0.73;;;;;;;;;;4941101;28;20157;-72
2023/01/17 13:11:26;;;;;;;22.33;2.13;;;;;;;;;;4947031;28;20118;-75
2023/01/17 13:13:56;;;;;;;5.40;1.10;;;;;;;;;;4945152;28;20454;-74
2023/01/17 13:16:52;;;;;;;8.23;1.38;;;;;;;;;;4944954;28;20121;-77
2023/01/17 13:19:25;;;;;;;13.43;1.10;;;;;;;;;;4943940;28;20059;-78
2023/01/17 13:21:51;;;;;;;12.50;1.00;;;;;;;;;;4931680;28;20043;-74
2023/01/17 13:24:27;;;;;;;9.38;1.35;;;;;;;;;;4944367;28;20059;-77
2023/01/17 13:26:56;;;;;;;5.03;0.85;;;;;;;;;;4941806;28;20052;-75
2023/01/17 13:29:51;;;;;;;6.97;1.08;;;;;;;;;;4939311;28;20051;-75
2023/01/17 13:32:35;;;;;;;;;;;;;;;;;;4939986;28;20466;-75
2023/01/17 13:35:40;;;;;;;1.67;0.70;;;;;;;;;;4942236;28;19923;-76
2023/01/17 13:38:42;;;;;;;3.38;0.80;;;;;;;;;;4934362;28;20535;-78
2023/01/17 13:41:33;;;;;;;11.95;1.20;;;;;;;;;;4939094;28;20051;-76
2023/01/17 13:47:28;;;;;;;11.07;1.20;;;;;;;;;;4939179;28;20185;-71
2023/01/17 13:49:55;;;;;;;10.38;1.00;;;;;;;;;;4936364;28;20067;-75
2023/01/17 13:52:23;;;;;;;3.38;0.95;;;;;;;;;;4936977;28;20051;-77
2023/01/17 13:54:51;;;;;;;7.53;0.80;;;;;;;;;;4941497;28;20043;-75
2023/01/17 13:57:31;;;;;;;8.80;1.00;;;;;;;;;;4937508;28;20074;-74
2023/01/17 14:00:21;;;;;;;7.18;1.15;;;;;;;;;;4937712;28;20480;-79
2023/01/17 14:02:48;;;;;;;12.02;1.25;;;;;;;;;;4935432;28;20473;-76
2023/01/17 14:05:22;;;;;;;6.28;0.88;;;;;;;;;;4945697;28;20493;-76
2023/01/17 14:07:51;;;;;;;19.17;1.50;;;;;;;;;;4942145;28;20040;-77
2023/01/17 14:10:38;;;;;;;20.27;1.77;;;;;;;;;;4938017;28;20320;-78
2023/01/17 14:13:05;;;;;;;19.88;1.55;;;;;;;;;;4933064;28;20111;-77
2023/01/17 14:15:45;;;;;;;13.57;1.35;;;;;;;;;;4934740;28;20043;-75
2023/01/17 14:18:40;;;;;;;8.57;1.10;;;;;;;;;;4936748;28;20503;-76
2023/01/17 14:21:07;;;;;;;12.82;1.10;;;;;;;;;;4938044;28;20093;-77
2023/01/17 14:23:46;;;;;;;4.35;0.75;;;;;;;;;;4940997;28;20126;-75
2023/01/17 14:26:19;;;;;;;6.85;0.88;;;;;;;;;;4939201;28;20055;-76
2023/01/17 14:28:45;;;;;;;9.77;1.08;;;;;;;;;;4938742;28;20101;-75
2023/01/17 14:31:13;;;;;;;5.65;1.00;;;;;;;;;;4938880;28;20049;-76
2023/01/17 14:33:40;;;;;;;7.40;0.88;;;;;;;;;;4936132;28;20050;-76
2023/01/17 14:36:23;;;;;;;10.98;1.30;;;;;;;;;;4941188;28;20055;-78
2023/01/17 14:38:49;;;;;;;7.25;1.15;;;;;;;;;;4934017;28;20590;-75
2023/01/17 14:41:23;;;;;;;5.07;1.02;;;;;;;;;;4941014;28;20055;-73
2023/01/17 14:43:50;;;;;;;3.17;0.82;;;;;;;;;;4942816;28;20058;-72
2023/01/17 14:46:27;;;;;;;1.63;0.70;;;;;;;;;;4935509;28;20148;-77
2023/01/17 14:49:22;;;;;;;5.72;1.05;;;;;;;;;;4939286;28;20070;-75
2023/01/17 14:52:03;;;;;;;3.88;0.73;;;;;;;;;;4938499;28;20058;-76
2023/01/17 14:54:29;;;;;;;4.68;0.90;;;;;;;;;;4933182;28;20043;-74
2023/01/17 14:57:21;;;;;;;3.67;0.90;;;;;;;;;;4938651;28;20047;-75
2023/01/17 14:59:47;;;;;;;5.43;1.00;;;;;;;;;;4938469;28;20117;-80
2023/01/17 15:02:17;;;;;;;7.18;1.00;;;;;;;;;;4943837;28;20054;-79
2023/01/17 15:04:44;;;;;;;8.65;1.00;;;;;;;;;;4940350;28;20039;-77
2023/01/17 15:07:15;;;;;;;6.35;0.95;;;;;;;;;;4941090;28;20400;-78
2023/01/17 15:09:43;;;;;;;2.83;0.77;;;;;;;;;;4941981;28;20156;-74
2023/01/17 15:12:13;;;;;;;7.40;0.90;;;;;;;;;;4938016;28;20044;-80
2023/01/17 15:14:43;;;;;;;4.82;0.82;;;;;;;;;;4932999;28;20068;-75
2023/01/17 15:17:23;;;;;;;2.85;0.80;;;;;;;;;;4945479;28;20749;-74
2023/01/17 15:20:02;;;;;;;2.40;0.73;;;;;;;;;;4936665;28;20054;-77
2023/01/17 15:22:28;;;;;;;8.43;0.70;;;;;;;;;;4943906;28;20043;-74
2023/01/17 15:24:55;;;;;;;4.53;1.10;;;;;;;;;;4941434;28;20054;-74
2023/01/17 15:27:23;;;;;;;5.07;0.75;;;;;;;;;;4942245;28;20130;-77
2023/01/17 15:29:49;;;;;;;2.08;0.95;;;;;;;;;;4943068;28;20050;-76
2023/01/17 15:32:30;;;;;;;4.22;0.77;;;;;;;;;;4941278;28;20055;-74
2023/01/17 15:34:57;;;;;;;3.08;0.98;;;;;;;;;;4945104;28;20054;-77
2023/01/17 15:37:32;;;;;;;4.57;0.77;;;;;;;;;;4949431;28;20406;-81
2023/01/17 15:40:15;;;;;;;5.55;0.77;;;;;;;;;;4946041;28;20147;-77
2023/01/17 15:42:43;;;;;;;2.17;0.73;;;;;;;;;;4951023;28;20062;-82
2023/01/17 15:45:30;;;;;;;1.52;0.70;;;;;;;;;;4949429;28;20073;-79
2023/01/17 15:47:58;;;;;;;4.95;0.95;;;;;;;;;;4943315;28;20047;-81
2023/01/17 15:50:30;;;;;;;2.70;1.13;;;;;;;;;;4947083;28;20856;-76
2023/01/17 15:53:03;;;;;;;2.90;0.90;;;;;;;;;;4937070;28;20503;-77
2023/01/17 15:55:30;;;;;;;5.85;1.00;;;;;;;;;;4937822;28;20079;-80
2023/01/17 15:57:57;;;;;;;4.07;0.77;;;;;;;;;;4935817;28;20059;-76
2023/01/17 16:00:25;;;;;;;6.18;1.15;;;;;;;;;;4937643;28;20738;-78
2023/01/17 16:02:57;;;;;;;4.47;0.88;;;;;;;;;;4933011;28;20043;-75
2023/01/17 16:05:32;;;;;;;5.63;1.08;;;;;;;;;;4943586;28;20086;-74
2023/01/17 16:08:02;;;;;;;3.67;0.82;;;;;;;;;;4938011;28;21073;-63
2023/01/17 16:10:34;;;;;;;3.60;0.90;;;;;;;;;;4931249;28;20101;-80
2023/01/17 16:13:02;;;;;;;1.88;0.60;;;;;;;;;;4927891;28;20070;-75
2023/01/17 16:15:29;;;;;;;4.75;0.85;;;;;;;;;;4933577;28;20105;-75
2023/01/17 16:17:56;;;;;;;5.07;0.90;;;;;;;;;;4934523;28;20764;-75
2023/01/17 16:20:28;;;;;;;3.72;0.93;;;;;;;;;;4934634;28;20101;-76
2023/01/17 16:22:55;;;;;;;5.78;0.90;;;;;;;;;;4938465;28;20051;-74
2023/01/17 16:25:23;;;;;;;6.18;1.10;;;;;;;;;;4941768;28;20062;-76
2023/01/17 16:27:50;;;;;;;1.58;0.65;;;;;;;;;;4940885;28;20051;-74
2023/01/17 16:30:18;;;;;;;2.30;0.82;;;;;;;;;;4947633;28;20055;-76
2023/01/17 16:32:47;;;;;;;7.75;1.08;;;;;;;;;;4939888;28;20051;-75
2023/01/17 16:35:21;;;;;;;4.45;1.02;;;;;;;;;;4943448;28;20539;-75
2023/01/17 16:37:48;;;;;;;;;;;;;;;;;;4943482;28;20051;-75